createdAt,value
2023-04-03T00:00:40.635Z,102299.53
2023-04-03T00:03:07.641Z,102294.25
2023-04-03T00:05:34.731Z,102295.97
2023-04-03T00:08:03.280Z,102288.94
2023-04-03T00:10:30.193Z,102290.72
2023-04-03T00:12:57.182Z,102293.34
2023-04-03T00:15:24.178Z,102292.44
2023-04-03T00:17:51.150Z,102288.94
2023-04-03T00:20:18.111Z,102270.44
2023-04-03T00:22:45.160Z,102283.72
2023-04-03T00:25:12.088Z,102283.66
2023-04-03T00:27:40.498Z,102286.25
2023-04-03T00:30:08.576Z,102285.38
2023-04-03T00:32:35.593Z,102276.72
2023-04-03T00:35:02.787Z,102279.38
2023-04-03T00:37:29.884Z,102274.84
2023-04-03T00:39:57.792Z,102260.63
2023-04-03T00:42:24.869Z,102266.47
2023-04-03T00:44:58.109Z,102256.44
2023-04-03T00:47:25.791Z,102253.81
2023-04-03T00:49:53.472Z,102262.41
2023-04-03T00:52:22.691Z,102248.72
2023-04-03T00:54:51.622Z,102249.66
2023-04-03T00:57:19.084Z,102248.59
2023-04-03T00:59:50.247Z,102249.41
2023-04-03T01:02:17.668Z,102245.31
2023-04-03T01:04:44.913Z,102239.03
2023-04-03T01:07:14.988Z,102241.19
2023-04-03T01:09:42.395Z,102243.50
2023-04-03T01:12:23.260Z,102245.16
2023-04-03T01:14:55.980Z,102238.75
2023-04-03T01:17:29.104Z,102234.44
2023-04-03T01:20:16.123Z,102243.28
2023-04-03T01:23:06.926Z,102237.19
2023-04-03T01:25:34.764Z,102232.59
2023-04-03T01:28:02.478Z,102231.72
2023-04-03T01:30:32.841Z,102236.63
2023-04-03T01:32:59.916Z,102236.75
2023-04-03T01:35:27.068Z,102233.19
2023-04-03T01:37:54.131Z,102229.06
2023-04-03T01:40:21.198Z,102233.31
2023-04-03T01:42:48.261Z,102232.28
2023-04-03T01:45:15.952Z,102220.06
2023-04-03T01:47:43.218Z,102226.03
2023-04-03T01:50:10.713Z,102225.16
2023-04-03T01:52:38.025Z,102221.03
2023-04-03T01:55:05.878Z,102221.78
2023-04-03T01:57:32.920Z,102223.41
2023-04-03T01:59:59.990Z,102228.34
2023-04-03T02:02:26.989Z,102226.81
2023-04-03T02:04:53.959Z,102223.63
2023-04-03T02:07:22.008Z,102219.88
2023-04-03T02:09:49.008Z,102218.91
2023-04-03T02:12:16.075Z,102216.16
2023-04-03T02:14:43.781Z,102213.41
2023-04-03T02:17:12.839Z,102216.09
2023-04-03T02:19:39.776Z,102209.00
2023-04-03T02:22:06.881Z,102207.44
2023-04-03T02:24:33.866Z,102197.63
2023-04-03T02:27:00.962Z,102197.50
2023-04-03T02:29:27.928Z,102192.34
2023-04-03T02:31:54.856Z,102192.34
2023-04-03T02:34:23.166Z,102195.84
2023-04-03T02:36:51.067Z,102188.78
2023-04-03T02:39:20.368Z,102194.44
2023-04-03T02:41:48.395Z,102201.63
2023-04-03T02:44:21.123Z,102196.09
2023-04-03T02:46:48.156Z,102196.28
2023-04-03T02:49:15.234Z,102193.69
2023-04-03T02:51:44.566Z,102187.50
2023-04-03T02:54:12.249Z,102192.97
2023-04-03T02:56:43.350Z,102183.09
2023-04-03T02:59:10.301Z,102183.09
2023-04-03T03:01:39.302Z,102180.41
2023-04-03T03:04:06.513Z,102174.97
2023-04-03T03:06:33.577Z,102182.88
2023-04-03T03:09:00.813Z,102174.22
2023-04-03T03:11:27.890Z,102182.78
2023-04-03T03:13:54.790Z,102177.56
2023-04-03T03:16:21.797Z,102181.69
2023-04-03T03:18:48.931Z,102182.31
2023-04-03T03:21:15.938Z,102188.63
2023-04-03T03:23:42.925Z,102180.84
2023-04-03T03:26:11.219Z,102182.78
2023-04-03T03:28:39.484Z,102183.41
2023-04-03T03:31:06.857Z,102172.81
2023-04-03T03:33:35.127Z,102175.50
2023-04-03T03:36:02.113Z,102171.91
2023-04-03T03:38:30.180Z,102176.75
2023-04-03T03:40:57.338Z,102171.88
2023-04-03T03:43:25.006Z,102172.75
2023-04-03T03:45:53.833Z,102169.94
2023-04-03T03:48:22.781Z,102174.13
2023-04-03T03:50:50.651Z,102176.59
2023-04-03T03:53:20.443Z,102178.81
2023-04-03T03:55:49.276Z,102180.97
2023-04-03T03:58:16.848Z,102178.97
2023-04-03T04:00:43.881Z,102178.53
2023-04-03T04:03:11.883Z,102172.41
2023-04-03T04:05:39.483Z,102168.59
2023-04-03T04:08:06.715Z,102171.94
2023-04-03T04:10:34.639Z,102171.81
2023-04-03T04:13:01.859Z,102169.09
2023-04-03T04:15:29.691Z,102163.56
2023-04-03T04:17:58.322Z,102165.50
2023-04-03T04:20:25.946Z,102163.97
2023-04-03T04:22:53.885Z,102157.94
2023-04-03T04:25:22.376Z,102157.53
2023-04-03T04:27:49.731Z,102160.00
2023-04-03T04:30:16.770Z,102155.69
2023-04-03T04:32:46.059Z,102161.72
2023-04-03T04:35:16.645Z,102155.41
2023-04-03T04:37:46.821Z,102155.63
2023-04-03T04:40:14.288Z,102161.72
2023-04-03T04:42:45.822Z,102157.47
2023-04-03T04:45:20.338Z,102155.34
2023-04-03T04:48:05.296Z,102158.63
2023-04-03T04:50:40.004Z,102154.66
2023-04-03T04:53:11.326Z,102162.84
2023-04-03T04:55:38.995Z,102167.09
2023-04-03T04:58:06.424Z,102165.31
2023-04-03T05:00:33.496Z,102171.19
2023-04-03T05:03:00.538Z,102167.16
2023-04-03T05:05:27.661Z,102159.47
2023-04-03T05:07:54.858Z,102158.03
2023-04-03T05:10:22.048Z,102161.59
2023-04-03T05:12:49.161Z,102163.09
2023-04-03T05:15:16.375Z,102152.38
2023-04-03T05:17:45.755Z,102157.88
2023-04-03T05:20:14.887Z,102156.44
2023-04-03T05:22:43.573Z,102154.78
2023-04-03T05:25:11.192Z,102156.44
2023-04-03T05:27:39.861Z,102159.13
2023-04-03T05:30:07.227Z,102156.09
2023-04-03T05:32:35.527Z,102158.63
2023-04-03T05:35:37.005Z,102157.31
2023-04-03T05:38:06.806Z,102156.06
2023-04-03T05:40:34.397Z,102163.00
2023-04-03T05:43:01.707Z,102156.44
2023-04-03T05:45:32.898Z,102153.78
2023-04-03T05:48:00.309Z,102159.56
2023-04-03T05:50:27.836Z,102155.50
2023-04-03T05:52:58.501Z,102163.00
2023-04-03T05:55:27.263Z,102159.50
2023-04-03T05:57:54.695Z,102158.53
2023-04-03T06:00:22.494Z,102163.00
2023-04-03T06:02:58.929Z,102155.72
2023-04-03T06:05:26.516Z,102163.72
2023-04-03T06:07:53.474Z,102163.78
2023-04-03T06:10:21.403Z,102156.44
2023-04-03T06:12:48.687Z,102161.56
2023-04-03T06:15:16.777Z,102160.44
2023-04-03T06:17:43.870Z,102156.66
2023-04-03T06:20:11.274Z,102158.03
2023-04-03T06:22:38.294Z,102158.56
2023-04-03T06:25:06.160Z,102172.81
2023-04-03T06:27:33.178Z,102173.06
2023-04-03T06:30:00.121Z,102171.50
2023-04-03T06:32:31.093Z,102175.00
2023-04-03T06:34:59.315Z,102173.19
2023-04-03T06:37:30.176Z,102171.66
2023-04-03T06:39:57.256Z,102172.72
2023-04-03T06:42:24.294Z,102166.00
2023-04-03T06:45:12.984Z,102163.69
2023-04-03T06:47:39.967Z,102160.44
2023-04-03T06:50:07.889Z,102161.78
2023-04-03T06:52:35.265Z,102175.97
2023-04-03T06:55:02.757Z,102171.00
2023-04-03T06:57:30.159Z,102182.72
2023-04-03T06:59:57.754Z,102180.66
2023-04-03T07:02:24.881Z,102171.94
2023-04-03T07:04:51.949Z,102180.28
2023-04-03T07:07:19.020Z,102174.25
2023-04-03T07:09:47.924Z,102176.88
2023-04-03T07:12:15.166Z,102173.84
2023-04-03T07:14:42.661Z,102167.59
2023-04-03T07:17:09.710Z,102169.13
2023-04-03T07:19:36.665Z,102168.66
2023-04-03T07:22:04.528Z,102170.06
2023-04-03T07:24:31.588Z,102164.84
2023-04-03T07:26:58.678Z,102166.69
2023-04-03T07:29:25.764Z,102166.78
2023-04-03T07:31:52.774Z,102165.59
2023-04-03T07:34:19.846Z,102165.13
2023-04-03T07:36:46.735Z,102157.28
2023-04-03T07:39:13.688Z,102163.66
2023-04-03T07:41:40.836Z,102161.06
2023-04-03T07:44:10.912Z,102165.44
2023-04-03T07:46:38.247Z,102164.09
2023-04-03T07:49:05.327Z,102160.94
2023-04-03T07:51:32.551Z,102157.66
2023-04-03T07:53:59.812Z,102159.53
2023-04-03T07:56:26.825Z,102154.06
2023-04-03T07:58:54.927Z,102152.94
2023-04-03T08:01:22.063Z,102143.69
2023-04-03T08:03:49.146Z,102145.47
2023-04-03T08:06:18.578Z,102140.38
2023-04-03T08:08:47.033Z,102139.28
2023-04-03T08:11:13.988Z,102134.66
2023-04-03T08:13:42.655Z,102133.97
2023-04-03T08:16:11.122Z,102141.22
2023-04-03T08:18:38.333Z,102136.78
2023-04-03T08:21:09.325Z,102138.47
2023-04-03T08:23:36.500Z,102139.59
2023-04-03T08:26:07.651Z,102134.50
2023-04-03T08:28:34.903Z,102136.03
2023-04-03T08:31:07.278Z,102135.03
2023-04-03T08:33:37.697Z,102135.91
2023-04-03T08:36:05.674Z,102134.44
2023-04-03T08:38:32.887Z,102135.75
2023-04-03T08:41:05.972Z,102131.59
2023-04-03T08:43:42.743Z,102127.81
2023-04-03T08:46:13.780Z,102129.09
2023-04-03T08:48:42.643Z,102120.22
2023-04-03T08:51:17.382Z,102128.63
2023-04-03T08:54:10.935Z,102122.69
2023-04-03T08:56:38.055Z,102119.47
2023-04-03T08:59:06.657Z,102119.06
2023-04-03T09:01:38.769Z,102126.06
2023-04-03T09:04:14.157Z,102124.81
2023-04-03T09:06:42.611Z,102130.63
2023-04-03T09:09:13.245Z,102127.38
2023-04-03T09:11:59.028Z,102115.69
2023-04-03T09:14:33.141Z,102115.75
2023-04-03T09:17:01.543Z,102106.13
2023-04-03T09:19:41.024Z,102103.53
2023-04-03T09:22:11.272Z,102096.91
2023-04-03T09:24:38.337Z,102096.44
2023-04-03T09:27:07.136Z,102095.50
2023-04-03T09:29:36.455Z,102096.78
2023-04-03T09:32:11.080Z,102096.91
2023-04-03T09:34:38.382Z,102088.84
2023-04-03T09:37:09.880Z,102095.03
2023-04-03T09:40:06.730Z,102090.47
2023-04-03T09:42:33.872Z,102085.84
2023-04-03T09:45:02.273Z,102093.78
2023-04-03T09:47:34.996Z,102089.63
2023-04-03T09:50:18.738Z,102090.28
2023-04-03T09:52:50.503Z,102071.47
2023-04-03T09:55:19.833Z,102074.63
2023-04-03T09:57:47.904Z,102073.44
2023-04-03T10:00:23.082Z,102068.88
2023-04-03T10:02:57.063Z,102063.31
2023-04-03T10:05:29.507Z,102067.03
2023-04-03T10:08:21.868Z,102056.50
2023-04-03T10:10:50.218Z,102060.03
2023-04-03T10:13:21.611Z,102049.69
2023-04-03T10:15:48.879Z,102048.88
2023-04-03T10:18:28.778Z,102055.66
2023-04-03T10:20:58.650Z,102044.50
2023-04-03T10:23:42.045Z,102039.97
2023-04-03T10:26:18.034Z,102041.19
2023-04-03T10:28:48.937Z,102047.63
2023-04-03T10:31:23.556Z,102041.53
2023-04-03T10:34:07.185Z,102039.81
2023-04-03T10:36:49.406Z,102028.59
2023-04-03T10:39:16.587Z,102031.72
2023-04-03T10:41:57.903Z,102023.78
2023-04-03T10:44:27.941Z,102025.09
2023-04-03T10:47:01.916Z,102018.19
2023-04-03T10:49:44.566Z,102011.16
2023-04-03T10:52:14.238Z,102014.78
2023-04-03T10:54:45.659Z,102016.44
2023-04-03T10:57:14.000Z,102013.47
2023-04-03T11:00:00.525Z,102012.78
2023-04-03T11:02:53.821Z,102017.31
2023-04-03T11:05:40.062Z,102012.22
2023-04-03T11:08:14.754Z,102005.00
2023-04-03T11:10:48.069Z,102004.03
2023-04-03T11:13:35.361Z,101996.31
2023-04-03T11:16:04.077Z,101993.69
2023-04-03T11:18:34.130Z,101992.53
2023-04-03T11:21:07.114Z,101999.28
2023-04-03T11:23:48.199Z,101992.75
2023-04-03T11:26:18.646Z,101991.44
2023-04-03T11:28:46.148Z,101992.03
2023-04-03T11:31:39.785Z,101982.91
2023-04-03T11:34:16.731Z,101974.47
2023-04-03T11:36:48.531Z,101976.47
2023-04-03T11:39:18.721Z,101969.50
2023-04-03T11:41:46.046Z,101959.50
2023-04-03T11:44:28.268Z,101955.56
2023-04-03T11:46:57.959Z,101947.91
2023-04-03T11:49:43.859Z,101947.56
2023-04-03T11:52:12.170Z,101939.06
2023-04-03T11:54:44.904Z,101936.13
2023-04-03T11:57:31.548Z,101934.44
2023-04-03T11:59:58.756Z,101922.91
2023-04-03T12:02:51.002Z,101916.03
2023-04-03T12:05:29.348Z,101929.88
2023-04-03T12:08:15.135Z,101931.19
2023-04-03T12:10:42.085Z,101922.69
2023-04-03T12:13:16.890Z,101919.75
2023-04-03T12:15:44.086Z,101914.97
2023-04-03T12:18:29.780Z,101911.41
2023-04-03T12:20:58.022Z,101908.72
2023-04-03T12:23:27.420Z,101903.09
2023-04-03T12:26:00.817Z,101904.41
2023-04-03T12:28:28.929Z,101906.97
2023-04-03T12:30:57.910Z,101898.31
2023-04-03T12:33:32.908Z,101897.91
2023-04-03T12:36:09.802Z,101889.69
2023-04-03T12:38:52.096Z,101884.31
2023-04-03T12:41:19.080Z,101884.94
2023-04-03T12:44:09.374Z,101881.72
2023-04-03T12:46:43.585Z,101875.19
2023-04-03T12:49:19.436Z,101872.06
2023-04-03T12:51:47.771Z,101871.44
2023-04-03T12:54:16.837Z,101862.25
2023-04-03T12:56:44.267Z,101861.03
2023-04-03T12:59:29.236Z,101867.94
2023-04-03T13:01:58.225Z,101848.16
2023-04-03T13:04:25.689Z,101854.75
2023-04-03T13:06:52.706Z,101854.47
2023-04-03T13:09:30.170Z,101849.41
2023-04-03T13:12:14.745Z,101842.53
2023-04-03T13:14:42.228Z,101833.16
2023-04-03T13:17:15.026Z,101821.59
2023-04-03T13:19:46.189Z,101816.63
2023-04-03T13:22:29.770Z,101819.41
2023-04-03T13:24:59.277Z,101826.78
2023-04-03T13:27:26.849Z,101821.56
2023-04-03T13:29:55.872Z,101821.03
2023-04-03T13:32:24.628Z,101814.75
2023-04-03T13:34:51.940Z,101816.81
2023-04-03T13:37:21.764Z,101813.50
2023-04-03T13:39:58.006Z,101811.34
2023-04-03T13:42:35.400Z,101813.25
2023-04-03T13:45:21.791Z,101807.97
2023-04-03T13:47:50.124Z,101802.38
2023-04-03T13:50:19.259Z,101800.84
2023-04-03T13:52:51.544Z,101798.38
2023-04-03T13:55:25.207Z,101789.72
2023-04-03T13:57:59.630Z,101791.66
2023-04-03T14:00:26.658Z,101786.53
2023-04-03T14:02:55.352Z,101790.75
2023-04-03T14:05:22.629Z,101785.00
2023-04-03T14:07:49.555Z,101774.56
2023-04-03T14:10:16.633Z,101780.81
2023-04-03T14:12:43.951Z,101779.97
2023-04-03T14:15:19.364Z,101770.09
2023-04-03T14:17:46.741Z,101762.66
2023-04-03T14:20:18.012Z,101745.53
2023-04-03T14:22:45.522Z,101743.09
2023-04-03T14:25:12.608Z,101743.75
2023-04-03T14:27:41.545Z,101742.94
2023-04-03T14:30:28.888Z,101742.22
2023-04-03T14:32:56.301Z,101734.69
2023-04-03T14:35:24.186Z,101735.66
2023-04-03T14:37:52.007Z,101735.47
2023-04-03T14:40:21.581Z,101730.84
2023-04-03T14:42:50.098Z,101732.41
2023-04-03T14:45:19.638Z,101731.41
2023-04-03T14:47:55.485Z,101726.97
2023-04-03T14:50:27.542Z,101719.25
2023-04-03T14:52:56.293Z,101719.28
2023-04-03T14:55:24.666Z,101723.00
2023-04-03T14:57:51.942Z,101715.94
2023-04-03T15:00:20.232Z,101714.28
2023-04-03T15:02:49.050Z,101698.84
2023-04-03T15:05:16.456Z,101711.38
2023-04-03T15:07:44.780Z,101706.88
2023-04-03T15:10:19.725Z,101705.44
2023-04-03T15:12:47.509Z,101711.03
2023-04-03T15:15:15.442Z,101706.38
2023-04-03T15:17:43.126Z,101701.91
2023-04-03T15:20:18.257Z,101712.00
2023-04-03T15:22:45.366Z,101699.78
2023-04-03T15:25:12.371Z,101707.78
2023-04-03T15:27:39.694Z,101703.13
2023-04-03T15:30:09.403Z,101709.38
2023-04-03T15:32:36.637Z,101695.22
2023-04-03T15:35:04.070Z,101691.06
2023-04-03T15:37:31.222Z,101702.47
2023-04-03T15:39:58.250Z,101703.25
2023-04-03T15:42:25.192Z,101703.25
2023-04-03T15:44:52.201Z,101705.88
2023-04-03T15:47:19.336Z,101709.00
2023-04-03T15:49:46.727Z,101701.09
2023-04-03T15:52:13.761Z,101708.50
2023-04-03T15:54:40.854Z,101703.31
2023-04-03T15:57:07.842Z,101700.53
2023-04-03T15:59:34.912Z,101700.09
2023-04-03T16:02:03.190Z,101698.22
2023-04-03T16:04:31.267Z,101692.72
2023-04-03T16:06:58.452Z,101695.22
2023-04-03T16:09:25.473Z,101696.88
2023-04-03T16:11:52.485Z,101702.78
2023-04-03T16:14:19.494Z,101701.59
2023-04-03T16:16:46.575Z,101693.13
2023-04-03T16:19:15.030Z,101691.72
2023-04-03T16:21:43.329Z,101704.84
2023-04-03T16:24:11.911Z,101706.34
2023-04-03T16:26:39.165Z,101704.53
2023-04-03T16:29:07.349Z,101706.72
2023-04-03T16:31:35.479Z,101702.25
2023-04-03T16:34:02.990Z,101702.06
2023-04-03T16:36:30.260Z,101694.88
2023-04-03T16:38:58.817Z,101696.47
2023-04-03T16:41:25.908Z,101695.38
2023-04-03T16:43:52.963Z,101699.53
2023-04-03T16:46:20.528Z,101700.91
2023-04-03T16:48:47.640Z,101704.13
2023-04-03T16:51:14.783Z,101696.25
2023-04-03T16:53:47.643Z,101692.53
2023-04-03T16:56:16.609Z,101687.91
2023-04-03T16:58:43.872Z,101694.63
2023-04-03T17:01:12.017Z,101689.47
2023-04-03T17:03:39.070Z,101694.88
2023-04-03T17:06:06.367Z,101695.75
2023-04-03T17:08:33.334Z,101704.03
2023-04-03T17:11:00.315Z,101704.97
2023-04-03T17:13:32.434Z,101714.34
2023-04-03T17:15:59.658Z,101714.09
2023-04-03T17:18:27.856Z,101722.84
2023-04-03T17:20:54.990Z,101723.66
2023-04-03T17:23:21.898Z,101722.69
2023-04-03T17:25:48.940Z,101717.78
2023-04-03T17:28:16.273Z,101716.28
2023-04-03T17:30:43.318Z,101711.66
2023-04-03T17:33:10.469Z,101717.75
2023-04-03T17:35:37.739Z,101716.56
2023-04-03T17:38:05.062Z,101713.78
2023-04-03T17:40:32.253Z,101715.03
2023-04-03T17:42:59.207Z,101722.13
2023-04-03T17:45:26.372Z,101725.63
2023-04-03T17:47:53.478Z,101720.72
2023-04-03T17:50:20.659Z,101716.94
2023-04-03T17:52:48.027Z,101720.69
2023-04-03T17:55:17.773Z,101718.91
2023-04-03T17:57:45.163Z,101719.75
2023-04-03T18:00:14.722Z,101721.38
2023-04-03T18:02:42.548Z,101720.19
2023-04-03T18:05:10.637Z,101717.22
2023-04-03T18:07:40.949Z,101727.41
2023-04-03T18:10:09.271Z,101724.75
2023-04-03T18:12:37.682Z,101729.97
2023-04-03T18:15:05.357Z,101728.19
2023-04-03T18:17:32.424Z,101726.41
2023-04-03T18:19:59.389Z,101730.50
2023-04-03T18:22:26.874Z,101733.78
2023-04-03T18:24:54.136Z,101731.06
2023-04-03T18:27:22.027Z,101724.50
2023-04-03T18:29:50.634Z,101726.19
2023-04-03T18:32:19.075Z,101724.19
2023-04-03T18:34:46.200Z,101720.75
2023-04-03T18:37:17.359Z,101726.06
2023-04-03T18:39:44.758Z,101726.41
2023-04-03T18:42:14.173Z,101730.94
2023-04-03T18:44:43.279Z,101735.09
2023-04-03T18:47:11.000Z,101737.53
2023-04-03T18:49:40.055Z,101735.31
2023-04-03T18:52:07.210Z,101742.34
2023-04-03T18:54:34.696Z,101749.97
2023-04-03T18:57:01.925Z,101747.97
2023-04-03T18:59:29.015Z,101751.44
2023-04-03T19:01:56.534Z,101757.03
2023-04-03T19:04:24.272Z,101762.84
2023-04-03T19:06:51.816Z,101769.53
2023-04-03T19:09:18.724Z,101776.94
2023-04-03T19:11:46.845Z,101777.94
2023-04-03T19:14:15.883Z,101774.50
2023-04-03T19:16:54.469Z,101778.59
2023-04-03T19:22:46.037Z,101785.97
2023-04-03T19:25:18.162Z,101785.94
2023-04-03T19:28:09.078Z,101782.16
2023-04-03T19:30:47.291Z,101778.13
2023-04-03T19:33:14.628Z,101781.44
2023-04-03T19:35:42.042Z,101786.59
2023-04-03T19:38:09.581Z,101785.00
2023-04-03T19:40:38.361Z,101786.94
2023-04-03T19:43:05.589Z,101780.81
2023-04-03T19:45:32.968Z,101785.00
2023-04-03T19:48:01.617Z,101790.28
2023-04-03T19:50:53.555Z,101784.88
2023-04-03T19:54:07.622Z,101778.50
2023-04-03T19:56:58.060Z,101788.16
2023-04-03T19:59:27.031Z,101791.88
2023-04-03T20:01:57.837Z,101793.66
2023-04-03T20:04:27.011Z,101789.28
2023-04-03T20:06:59.397Z,101789.28
2023-04-03T20:09:27.631Z,101795.50
2023-04-03T20:11:54.646Z,101794.66
2023-04-03T20:14:21.587Z,101795.50
2023-04-03T20:16:48.782Z,101799.09
2023-04-03T20:19:17.047Z,101787.00
2023-04-03T20:21:44.180Z,101787.69
2023-04-03T20:24:12.581Z,101793.94
2023-04-03T20:26:46.378Z,101782.38
2023-04-03T20:29:14.835Z,101789.34
2023-04-03T20:31:42.358Z,101785.59
2023-04-03T20:34:10.052Z,101788.31
2023-04-03T20:36:37.805Z,101789.34
2023-04-03T20:39:05.000Z,101782.28
2023-04-03T20:41:35.666Z,101782.97
2023-04-03T20:44:02.980Z,101786.25
2023-04-03T20:46:42.152Z,101791.41
2023-04-03T20:49:25.406Z,101793.09
2023-04-03T20:51:53.113Z,101791.41
2023-04-03T20:54:49.772Z,101798.50
2023-04-03T20:57:29.574Z,101794.88
2023-04-03T20:59:59.988Z,101793.81
2023-04-03T21:02:27.389Z,101796.47
2023-04-03T21:04:56.108Z,101797.47
2023-04-03T21:07:43.632Z,101792.53
2023-04-03T21:10:29.726Z,101786.25
2023-04-03T21:13:17.586Z,101792.88
2023-04-03T21:15:52.319Z,101792.94
2023-04-03T21:18:32.025Z,101795.53
2023-04-03T21:20:59.259Z,101798.09
2023-04-03T21:23:28.557Z,101792.09
2023-04-03T21:25:55.827Z,101790.13
2023-04-03T21:28:24.996Z,101790.97
2023-04-03T21:30:52.174Z,101784.44
2023-04-03T21:33:19.397Z,101780.72
2023-04-03T21:35:47.100Z,101795.63
2023-04-03T21:38:15.615Z,101789.25
2023-04-03T21:40:46.966Z,101789.94
2023-04-03T21:43:18.474Z,101787.06
2023-04-03T21:45:53.317Z,101787.78
2023-04-03T21:48:21.375Z,101784.69
2023-04-03T21:50:50.597Z,101790.25
2023-04-03T21:53:19.799Z,101793.66
2023-04-03T21:55:58.246Z,101787.25
2023-04-03T21:58:31.116Z,101787.66
2023-04-03T22:01:01.563Z,101795.56
2023-04-03T22:03:29.323Z,101782.44
2023-04-03T22:05:58.816Z,101782.81
2023-04-03T22:08:25.932Z,101779.47
2023-04-03T22:10:53.172Z,101776.41
2023-04-03T22:13:20.008Z,101785.44
2023-04-03T22:15:47.610Z,101786.69
2023-04-03T22:18:14.662Z,101787.84
2023-04-03T22:20:43.370Z,101778.94
2023-04-03T22:23:10.626Z,101770.19
2023-04-03T22:25:37.697Z,101768.88
2023-04-03T22:28:04.538Z,101778.56
2023-04-03T22:30:31.690Z,101775.31
2023-04-03T22:32:59.710Z,101772.97
2023-04-03T22:35:29.029Z,101762.44
2023-04-03T22:38:00.321Z,101764.78
2023-04-03T22:40:27.514Z,101758.91
2023-04-03T22:42:55.332Z,101770.75
2023-04-03T22:45:23.449Z,101762.88
2023-04-03T22:47:50.739Z,101766.44
2023-04-03T22:50:20.794Z,101758.38
2023-04-03T22:52:49.858Z,101755.75
2023-04-03T22:55:19.461Z,101759.13
2023-04-03T22:57:54.923Z,101762.28
2023-04-03T23:00:23.120Z,101754.34
2023-04-03T23:02:51.101Z,101754.28
2023-04-03T23:05:18.260Z,101752.34
2023-04-03T23:07:46.125Z,101754.78
2023-04-03T23:10:14.597Z,101761.69
2023-04-03T23:12:41.817Z,101756.47
2023-04-03T23:15:09.021Z,101749.34
2023-04-03T23:17:39.559Z,101747.38
2023-04-03T23:20:07.306Z,101748.22
2023-04-03T23:22:34.305Z,101752.22
2023-04-03T23:25:01.713Z,101757.09
2023-04-03T23:27:28.694Z,101755.66
2023-04-03T23:29:55.809Z,101758.81
2023-04-03T23:32:22.796Z,101763.53
2023-04-03T23:34:49.726Z,101773.50
2023-04-03T23:37:16.973Z,101763.03
2023-04-03T23:39:43.915Z,101763.19
2023-04-03T23:42:12.248Z,101764.88
2023-04-03T23:44:39.247Z,101766.59
2023-04-03T23:47:06.213Z,101761.31
2023-04-03T23:49:33.273Z,101766.59
2023-04-03T23:52:00.967Z,101758.41
2023-04-03T23:54:27.851Z,101752.41
2023-04-03T23:56:54.869Z,101748.78
2023-04-03T23:59:22.248Z,101751.50
